createdAt,value
2017-07-25T09:21:33.036Z,3.87
2017-07-25T09:24:09.901Z,4.30
2017-07-25T09:26:49.007Z,4.23
2017-07-25T09:29:28.031Z,3.80
2017-07-25T09:32:08.282Z,6.33
2017-07-25T09:34:46.046Z,4.90
2017-07-25T09:37:25.856Z,4.53
2017-07-25T09:40:03.214Z,3.57
2017-07-25T09:42:43.481Z,4.40
2017-07-25T09:45:21.937Z,3.93
2017-07-25T09:48:00.694Z,4.10
2017-07-25T09:50:37.520Z,4.13
2017-07-25T09:53:17.112Z,4.73
2017-07-25T09:55:54.972Z,3.97
2017-07-25T09:58:34.593Z,4.00
2017-07-25T10:01:10.996Z,3.67
2017-07-25T10:03:49.977Z,5.03
2017-07-25T10:06:27.292Z,3.63
2017-07-25T10:09:06.031Z,4.20
2017-07-25T10:11:44.712Z,4.17
2017-07-25T10:14:24.238Z,4.40
2017-07-25T10:17:02.124Z,4.00
2017-07-25T10:19:40.718Z,4.63
2017-07-25T10:22:19.241Z,3.87
2017-07-25T10:24:59.037Z,3.80
2017-07-25T10:27:37.652Z,3.13
2017-07-25T10:30:16.917Z,3.33
2017-07-25T10:32:53.948Z,3.33
2017-07-25T10:35:33.448Z,4.13
2017-07-25T10:38:13.339Z,3.43
2017-07-25T10:40:52.660Z,3.63
2017-07-25T10:43:31.648Z,3.67
2017-07-25T10:46:09.945Z,4.20
2017-07-25T10:48:47.394Z,3.60
2017-07-25T10:51:26.614Z,3.90
2017-07-25T10:54:03.772Z,2.93
2017-07-25T10:56:43.922Z,3.13
2017-07-25T10:59:23.279Z,3.67
2017-07-25T11:02:01.816Z,3.70
2017-07-25T11:04:39.112Z,3.23
2017-07-25T11:07:15.344Z,3.17
2017-07-25T11:09:53.241Z,3.90
2017-07-25T11:12:32.921Z,2.90
2017-07-25T11:15:11.065Z,3.30
2017-07-25T11:17:49.428Z,3.53
2017-07-25T11:20:27.528Z,3.20
2017-07-25T11:23:09.022Z,3.40
2017-07-25T11:25:49.243Z,3.00
2017-07-25T11:28:29.480Z,3.53
2017-07-25T11:31:06.616Z,3.80
2017-07-25T11:33:44.348Z,3.30
2017-07-25T11:36:23.277Z,2.83
2017-07-25T11:39:02.430Z,3.20
2017-07-25T11:41:38.203Z,2.83
2017-07-25T11:44:15.927Z,3.23
2017-07-25T11:46:51.408Z,2.70
2017-07-25T11:49:30.894Z,3.50
2017-07-25T11:52:08.783Z,3.40
2017-07-25T11:54:47.964Z,3.27
2017-07-25T11:57:25.907Z,2.60
2017-07-25T12:00:06.059Z,3.53
2017-07-25T12:02:43.230Z,3.10
2017-07-25T12:05:22.314Z,3.37
2017-07-25T12:08:02.486Z,2.97
2017-07-25T12:10:45.805Z,2.60
2017-07-25T12:13:24.303Z,2.90
2017-07-25T12:16:10.406Z,2.77
2017-07-25T12:18:52.328Z,2.77
2017-07-25T12:21:54.147Z,2.50
2017-07-25T12:24:36.219Z,2.90
2017-07-25T12:27:16.111Z,2.47
2017-07-25T12:30:00.516Z,2.50
2017-07-25T12:32:39.269Z,2.43
2017-07-25T12:35:16.180Z,2.60
2017-07-25T12:37:55.227Z,2.70
2017-07-25T12:40:32.769Z,2.47
2017-07-25T12:43:11.463Z,2.67
2017-07-25T12:45:50.115Z,3.00
2017-07-25T12:48:28.862Z,3.00
2017-07-25T12:51:05.945Z,2.20
2017-07-25T12:53:46.324Z,2.50
2017-07-25T12:56:27.479Z,3.60
2017-07-25T12:59:06.892Z,2.60
2017-07-25T13:01:48.755Z,3.03
2017-07-25T13:04:29.075Z,2.80
2017-07-25T13:07:06.391Z,2.10
2017-07-25T13:09:46.047Z,2.30
2017-07-25T13:12:24.785Z,2.37
2017-07-25T13:15:04.239Z,2.23
2017-07-25T13:17:41.459Z,2.60
2017-07-25T13:20:19.094Z,2.63
2017-07-25T13:22:57.421Z,3.20
2017-07-25T13:25:36.984Z,3.43
2017-07-25T13:28:14.901Z,3.00
2017-07-25T13:30:55.537Z,2.67
2017-07-25T13:33:34.315Z,2.33
2017-07-25T13:36:13.225Z,2.40
2017-07-25T13:38:50.132Z,2.10
2017-07-25T13:41:21.269Z,2.63
2017-07-25T13:43:59.776Z,2.80
2017-07-25T13:46:38.162Z,2.57
2017-07-25T13:49:17.047Z,2.20
2017-07-25T13:51:52.109Z,2.07
2017-07-25T13:54:30.464Z,2.43
2017-07-25T13:57:08.338Z,2.30
2017-07-25T13:59:44.862Z,2.53
2017-07-25T14:02:23.889Z,2.57
2017-07-25T14:05:01.229Z,2.37
2017-07-25T14:07:41.359Z,2.40
2017-07-25T14:10:20.133Z,2.90
2017-07-25T14:13:01.239Z,2.30
2017-07-25T14:15:39.403Z,2.27
2017-07-25T14:18:20.462Z,1.90
2017-07-25T14:20:58.451Z,2.03
2017-07-25T14:23:36.934Z,2.13
2017-07-25T14:26:13.680Z,1.80
2017-07-25T14:28:51.522Z,2.60
2017-07-25T14:31:26.682Z,1.80
2017-07-25T14:34:06.604Z,2.57
2017-07-25T14:36:44.692Z,2.03
2017-07-25T14:39:23.743Z,1.87
2017-07-25T14:42:02.876Z,2.23
2017-07-25T14:44:42.840Z,1.87
2017-07-25T14:47:14.786Z,2.57
2017-07-25T14:49:53.432Z,2.20
2017-07-25T14:52:31.902Z,2.33
2017-07-25T14:55:08.905Z,1.90
2017-07-25T14:57:43.294Z,1.30
2017-07-25T15:00:18.631Z,1.70
2017-07-25T15:02:56.686Z,2.37
2017-07-25T15:05:35.924Z,1.80
2017-07-25T15:08:13.095Z,1.97
2017-07-25T15:10:52.592Z,1.70
2017-07-25T15:13:31.119Z,2.00
2017-07-25T15:16:10.722Z,1.90
2017-07-25T15:18:48.870Z,1.53
2017-07-25T15:21:28.382Z,1.77
2017-07-25T15:24:06.350Z,1.50
2017-07-25T15:26:45.808Z,2.10
2017-07-25T15:29:25.007Z,1.70
2017-07-25T15:31:58.017Z,2.60
2017-07-25T15:34:30.434Z,1.90
2017-07-25T15:37:02.854Z,2.20
2017-07-25T15:39:33.954Z,2.13
2017-07-25T15:42:06.374Z,1.70
2017-07-25T15:44:38.394Z,2.00
2017-07-25T15:47:10.734Z,1.77
2017-07-25T15:49:42.775Z,2.10
2017-07-25T15:52:22.656Z,1.87
2017-07-25T15:55:01.758Z,2.30
2017-07-25T15:57:34.567Z,2.30
2017-07-25T16:00:08.642Z,2.30
2017-07-25T16:02:47.447Z,2.33
2017-07-25T16:05:24.481Z,2.03
2017-07-25T16:08:01.858Z,2.00
2017-07-25T16:10:41.192Z,1.60
2017-07-25T16:13:19.955Z,2.00
2017-07-25T16:15:59.022Z,2.37
2017-07-25T16:18:34.994Z,2.07
2017-07-25T16:21:12.981Z,1.70
2017-07-25T16:23:51.894Z,2.20
2017-07-25T16:26:29.734Z,2.07
2017-07-25T16:29:06.321Z,1.40
2017-07-25T16:31:43.147Z,2.10
2017-07-25T16:34:24.418Z,1.80
2017-07-25T16:37:02.238Z,2.07
2017-07-25T16:39:42.667Z,1.47
2017-07-25T16:42:21.860Z,1.67
2017-07-25T16:45:00.744Z,1.90
2017-07-25T16:47:37.926Z,2.20
2017-07-25T16:50:18.350Z,2.17
2017-07-25T16:52:55.783Z,2.17
2017-07-25T16:55:34.938Z,1.80
2017-07-25T16:58:12.082Z,1.93
2017-07-25T17:00:50.658Z,1.93
2017-07-25T17:03:28.644Z,1.87
2017-07-25T17:06:08.511Z,2.03
2017-07-25T17:08:43.490Z,1.60
2017-07-25T17:11:21.740Z,1.80
2017-07-25T17:14:00.453Z,1.63
2017-07-25T17:16:39.827Z,1.80
2017-07-25T17:19:17.352Z,1.70
2017-07-25T17:21:55.226Z,1.80
2017-07-25T17:24:33.000Z,2.07
2017-07-25T17:27:12.149Z,1.87
2017-07-25T17:29:51.637Z,1.63
2017-07-25T17:32:27.888Z,1.73
2017-07-25T17:35:06.535Z,2.00
2017-07-25T17:37:44.405Z,1.33
2017-07-25T17:40:21.644Z,1.70
2017-07-25T17:43:00.933Z,1.90
2017-07-25T17:45:38.020Z,1.50
2017-07-25T17:48:17.081Z,1.47
2017-07-25T17:50:47.491Z,1.90
2017-07-25T17:53:18.003Z,1.40
2017-07-25T17:55:50.628Z,1.80
2017-07-25T17:58:23.308Z,2.00
2017-07-25T18:00:54.193Z,3.53
2017-07-25T18:03:25.792Z,1.60
2017-07-25T18:05:57.801Z,1.93
2017-07-25T18:08:30.049Z,1.90
2017-07-25T18:11:02.009Z,2.00
2017-07-25T18:13:34.248Z,1.90
2017-07-25T18:16:04.929Z,1.80
2017-07-25T18:18:37.389Z,1.20
2017-07-25T18:21:09.349Z,1.80
2017-07-25T18:23:41.857Z,1.87
2017-07-25T18:26:19.794Z,1.47
2017-07-25T18:28:53.955Z,1.73
2017-07-25T18:31:29.330Z,1.57
2017-07-25T18:34:08.614Z,1.50
2017-07-25T18:36:46.056Z,1.20
2017-07-25T18:39:24.941Z,1.50
2017-07-25T18:42:03.256Z,1.40
2017-07-25T18:44:45.437Z,2.00
2017-07-25T18:47:23.193Z,2.63
2017-07-25T18:50:05.431Z,1.43
2017-07-25T18:52:44.336Z,1.90
2017-07-25T18:55:14.857Z,1.70
2017-07-25T18:57:54.603Z,1.83
2017-07-25T19:00:25.555Z,1.60
2017-07-25T19:02:56.095Z,1.60
2017-07-25T19:05:30.674Z,1.80
2017-07-25T19:08:02.115Z,1.47
2017-07-25T19:10:41.883Z,1.40
2017-07-25T19:13:21.256Z,1.73
2017-07-25T19:16:00.851Z,1.70
2017-07-25T19:18:38.605Z,1.27
2017-07-25T19:21:17.823Z,1.50
2017-07-25T19:23:48.198Z,1.33
2017-07-25T19:26:27.716Z,1.70
2017-07-25T19:29:07.481Z,2.30
2017-07-25T19:31:38.023Z,1.63
2017-07-25T19:34:16.544Z,1.30
2017-07-25T19:36:46.699Z,1.50
2017-07-25T19:39:24.566Z,0.97
2017-07-25T19:42:05.281Z,1.83
2017-07-25T19:44:40.779Z,1.53
2017-07-25T19:47:19.973Z,1.47
2017-07-25T19:49:55.092Z,1.30
2017-07-25T19:52:35.420Z,1.50
2017-07-25T19:55:13.156Z,1.43
2017-07-25T19:57:54.831Z,1.60
2017-07-25T20:00:24.703Z,1.40
2017-07-25T20:03:05.312Z,1.60
2017-07-25T20:05:36.004Z,1.57
2017-07-25T20:08:06.322Z,1.47
2017-07-25T20:10:43.763Z,1.30
2017-07-25T20:13:24.464Z,1.30
2017-07-25T20:15:55.285Z,1.50
2017-07-25T20:18:27.761Z,1.40
2017-07-25T20:21:06.503Z,1.33
2017-07-25T20:23:49.406Z,1.30
2017-07-25T20:26:28.040Z,1.30
2017-07-25T20:29:07.564Z,1.43
2017-07-25T20:31:41.321Z,1.23
2017-07-25T20:34:13.363Z,1.47
2017-07-25T20:36:43.950Z,1.50
2017-07-25T20:39:14.982Z,1.27
2017-07-25T20:41:52.378Z,1.60
2017-07-25T20:44:30.447Z,1.00
2017-07-25T20:47:08.009Z,1.27
2017-07-25T20:49:46.432Z,1.20
2017-07-25T20:52:24.399Z,1.37
2017-07-25T20:55:03.417Z,1.50
2017-07-25T20:57:42.366Z,1.37
2017-07-25T21:00:22.304Z,1.33
2017-07-25T21:03:01.117Z,1.50
2017-07-25T21:05:41.362Z,1.60
2017-07-25T21:08:18.531Z,1.20
2017-07-25T21:10:58.646Z,1.17
2017-07-25T21:13:38.559Z,1.10
2017-07-25T21:16:18.014Z,1.20
2017-07-25T21:18:58.030Z,1.00
2017-07-25T21:21:40.196Z,1.20
2017-07-25T21:24:23.132Z,1.50
2017-07-25T21:26:53.622Z,1.27
2017-07-25T21:29:24.545Z,1.30
2017-07-25T21:32:03.339Z,1.40
2017-07-25T21:34:44.823Z,1.10
2017-07-25T21:37:24.535Z,1.00
2017-07-25T21:40:03.265Z,1.30
2017-07-25T21:42:43.413Z,1.17
2017-07-25T21:45:22.651Z,1.10
2017-07-25T21:48:03.129Z,1.10
2017-07-25T21:50:42.329Z,1.50
2017-07-25T21:53:19.242Z,1.10
2017-07-25T21:55:56.547Z,1.43
2017-07-25T21:58:35.833Z,1.20
2017-07-25T22:01:16.537Z,1.13
2017-07-25T22:03:58.848Z,1.10
2017-07-25T22:06:37.310Z,1.00
2017-07-25T22:09:15.483Z,1.20
2017-07-25T22:11:53.721Z,1.17
2017-07-25T22:14:24.098Z,1.23
2017-07-25T22:16:54.193Z,1.20
2017-07-25T22:19:26.136Z,1.07
2017-07-25T22:21:56.801Z,1.20
2017-07-25T22:24:37.866Z,1.07
2017-07-25T22:27:18.607Z,1.20
2017-07-25T22:30:00.417Z,1.23
2017-07-25T22:32:40.231Z,1.10
2017-07-25T22:35:20.301Z,1.20
2017-07-25T22:37:58.731Z,2.00
2017-07-25T22:40:38.724Z,1.47
2017-07-25T22:43:15.603Z,1.20
